Winfield, AL (35594)

2:16 AM CST on December 06, 2016 (GMT -0600)
Bevill State | | Change Station

Elev 423 ft 33.73 °N, 87.82 °W | Updated 16 minutes ago

Heavy Rain
Heavy Rain Mist
54.6 °F
Feels Like 54.6 °F
N
5.0
Wind Variable Wind from NW
Gusts 5.0 mph

Today
High -- | Low -- °F
--% Chance of Precip.
Yesterday
High -- | Low -- °F
Precip. -- in
Pressure 29.71 in
Visibility 4.0 miles
Clouds Few 500 ft
Mostly Cloudy 2000 ft
Overcast 2500 ft
Dew Point 54 °F
Humidity 96%
Rainfall 0.08 in
Snow Depth Not available.
6:42 AM 4:42 PM
Waxing Crescent, 39% visible
SPECI K1M4 060814Z AUTO 00000KT 4SM +RA BR FEW005 BKN020 OVC025 13/12 A2971 RMK AO2 LTG DSNT N AND NE TSE02 P0016
Pressure 29.71 in
Visibility 4.0 miles
Clouds Few 500 ft
Mostly Cloudy 2000 ft
Overcast 2500 ft
Dew Point 54 °F
Humidity 96%
Rainfall 0.08 in
Snow Depth Not available.
6:42 AM 4:42 PM
Waxing Crescent, 39% visible
SPECI K1M4 060814Z AUTO 00000KT 4SM +RA BR FEW005 BKN020 OVC025 13/12 A2971 RMK AO2 LTG DSNT N AND NE TSE02 P0016

10-Day Weather Forecast

Almanac

Astronomy

Dec. 06, 2016 Rise Set
Actual Time
Civil Twilight
Nautical Twilight
Astronomical Twilight
Moon
Length of Visible Light
Length of Day
Tomorrow will be .
, % of the Moon is Illuminated

Today's Extremes

State Highs State Lows

Community

WunderPhotos

Upload Photos

1,955,935 photos uploaded!

WunderBlog® & News

Nearby

Air Quality

  Air Quality AQ Index Pollutant
Not available.

Snow Depth

Station Depth Elevation

Earthquake Activity

City Distance Mag. Time & Date
Minimum magnitude displayed is 2.5.

Coastal Water Temperatures

Place Temperature

Stations

Nearby Weather Stations

Station Location Temp. Windchill Dew Point Humidity Wind Precip. Elev Updated Type
                   

Watches & Warnings

There are currently no watches in effect.